METAR AND TAF INFORMATION
METAR FOR SBSG
ADDS - METARS form results

(1152 UTC 19 May 2019)
Data provider http://aviationweather.gov/metar/data/
 
METAR text: SBSG 191135Z 20006KT 3400 -RA BR SCT004 BKN009 FEW023TCU BKN050 25/25 Q1014
Conditions at: SBSG (NATAL , BR) observed 1135 UTC 19 May 2019
Temperature: 25.0°C (77°F)
Dewpoint: 25.0°C (77°F) [RH = 100%]
Pressure (altimeter): 29.94 inches Hg (1014.0 mb)
Winds: from the SSW (200 degrees) at 7 MPH (6 knots; 3.1 m/s)
Visibility: 2.11 miles (3.40 km)
Ceiling: 900 feet AGL
Clouds: scattered clouds at 400 feet AGL
broken clouds at 900 feet AGL
few clouds at 2300 feet AGL
broken clouds at 5000 feet AGL
Weather: -RA BR  (light rain, mist)

METAR text: SBSG 191100Z 22003KT 7000 -SHRA BKN010 SCT015 FEW023TCU BKN067 25/24 Q1014
Conditions at: SBSG (NATAL , BR) observed 1100 UTC 19 May 2019
Temperature: 25.0°C (77°F)
Dewpoint: 24.0°C (75°F) [RH = 94%]
Pressure (altimeter): 29.94 inches Hg (1014.0 mb)
Winds: from the SW (220 degrees) at 3 MPH (3 knots; 1.5 m/s)
Visibility: 4 miles ( 7 km)
Ceiling: 1000 feet AGL
Clouds: broken clouds at 1000 feet AGL
scattered clouds at 1500 feet AGL
few clouds at 2300 feet AGL
broken clouds at 6700 feet AGL
Weather: -SHRA  (light rain showers)

Forecast for: SBSG (NATAL , BR)
Text: TAF SBSG 191000Z 1912/2012 16008KT 9999 FEW033 TX32/1916Z TN23/2007Z
Forecast period: 1200 to 2100 UTC 19 May 2019
Forecast type: FROM: standard forecast or significant change
Winds: from the SSE (160 degrees) at 9 MPH (8 knots; 4.1 m/s)
Visibility: 6 or more miles 10+ km)
Ceiling: at least 12,000 feet AGL
Clouds: few clouds at 3300 feet AGL
Weather: no significant weather forecast for this period
Text: BECMG 1921/1923 18005KT FEW021 RMK PAY
Forecast period: 2100 UTC 19 May 2019 to 1200 UTC 20 May 2019
Forecast type: BECOMING: Conditions expected to become as follows by 2300 UTC 19 May 2019
Winds: from the S (180 degrees) at 6 MPH (5 knots; 2.6 m/s)
Visibility: 6 or more miles 10+ km)
Ceiling: at least 12,000 feet AGL
Clouds: few clouds at 2100 feet AGL
Weather: no significant weather forecast for this period

 AIRPORT MAP

 RUNWAY INFORMATION
Runway 12 Runway length 9843 ft Runway width 197 ft
Runway elevation 273 ft Runway displaced threshold 0 ft Runway heading 99
Runway 30 Runway length 9843 ft Runway width 197 ft
Runway elevation 264 ft Runway displaced threshold 0 ft Runway heading 279

 AIRPORT FREQUENCIES
Type ATIS Name Frequency 127.6 MHZ
Type ILS Name Frequency 109.7 MHZ
Type TWR Name Frequency 118.2 MHZ

 AIRPORT NEAR NAVIGATION AIDS



Powered by Virtual Airlines Manager [v2.6.2]